createdAt,value
2018-12-22T00:01:53.343Z,99975.43
2018-12-22T00:04:20.875Z,99969.52
2018-12-22T00:06:48.334Z,99978.41
2018-12-22T00:09:15.777Z,99970.51
2018-12-22T00:11:43.208Z,99971.83
2018-12-22T00:14:10.613Z,99971.01
2018-12-22T00:16:38.025Z,99969.02
2018-12-22T00:19:05.501Z,99968.86
2018-12-22T00:21:32.944Z,99978.57
2018-12-22T00:24:00.376Z,99975.59
2018-12-22T00:26:27.869Z,99978.23
2018-12-22T00:31:35.395Z,99976.92
2018-12-22T00:34:02.850Z,99987.13
2018-12-22T00:36:30.312Z,99987.95
2018-12-22T00:38:57.729Z,99979.75
2018-12-22T00:41:25.208Z,99987.47
2018-12-22T00:43:52.623Z,99988.96
2018-12-22T00:46:20.153Z,99987.96
2018-12-22T00:48:47.586Z,99987.63
2018-12-22T00:51:15.051Z,99991.39
2018-12-22T00:53:42.509Z,99995.02
2018-12-22T00:56:09.961Z,99991.89
2018-12-22T00:58:37.396Z,99996.19
2018-12-22T01:01:04.868Z,99996.81
2018-12-22T01:03:32.437Z,99990.92
2018-12-22T01:05:59.866Z,99992.72
2018-12-22T01:08:27.284Z,99996.00
2018-12-22T01:10:54.693Z,99994.87
2018-12-22T01:13:22.132Z,99999.96
2018-12-22T01:15:49.546Z,99999.63
2018-12-22T01:18:16.965Z,100006.20
2018-12-22T01:20:44.421Z,100011.78
2018-12-22T01:23:11.877Z,100005.70
2018-12-22T01:25:39.400Z,99997.66
2018-12-22T01:28:06.888Z,100003.89
2018-12-22T01:30:34.353Z,100004.70
2018-12-22T01:33:01.825Z,100007.52
2018-12-22T01:35:29.291Z,100014.42
2018-12-22T01:37:56.734Z,100015.59
2018-12-22T01:40:24.196Z,100008.50
2018-12-22T01:42:51.630Z,100016.72
2018-12-22T01:45:19.115Z,100013.45
2018-12-22T01:47:46.580Z,100009.66
2018-12-22T01:50:13.999Z,100011.47
2018-12-22T01:52:41.443Z,100016.41
2018-12-22T01:55:08.956Z,100008.00
2018-12-22T01:57:36.385Z,100010.45
2018-12-22T02:00:04.975Z,100010.64
2018-12-22T02:02:32.451Z,100006.37
2018-12-22T02:04:59.869Z,100008.82
2018-12-22T02:07:27.341Z,100015.41
2018-12-22T02:09:54.765Z,100015.41
2018-12-22T02:12:22.231Z,100015.91
2018-12-22T02:14:49.742Z,100014.10
2018-12-22T02:17:17.195Z,100010.82
2018-12-22T02:19:44.622Z,100012.29
2018-12-22T02:22:12.099Z,100005.86
2018-12-22T02:24:39.561Z,99993.02
2018-12-22T02:27:07.004Z,99992.70
2018-12-22T02:29:34.556Z,99994.17
2018-12-22T02:32:01.986Z,100002.57
2018-12-22T02:34:29.416Z,99989.09
2018-12-22T02:36:56.931Z,99997.80
2018-12-22T02:39:24.403Z,99995.19
2018-12-22T02:41:51.839Z,99990.75
2018-12-22T02:44:19.267Z,99987.13
2018-12-22T02:46:46.757Z,99985.16
2018-12-22T02:49:14.231Z,99978.75
2018-12-22T02:51:41.641Z,99980.91
2018-12-22T02:54:09.063Z,99979.54
2018-12-22T02:56:36.485Z,99979.41
2018-12-22T02:59:06.346Z,99972.66
2018-12-22T03:01:33.560Z,99976.92
2018-12-22T03:04:00.992Z,99973.16
2018-12-22T03:06:28.451Z,99968.86
2018-12-22T03:08:56.037Z,99972.97
2018-12-22T03:11:23.486Z,99963.27
2018-12-22T03:13:50.930Z,99964.28
2018-12-22T03:16:18.355Z,99950.14
2018-12-22T03:18:45.795Z,99949.15
2018-12-22T03:21:13.261Z,99951.61
2018-12-22T03:23:40.769Z,99946.36
2018-12-22T03:26:08.215Z,99937.96
2018-12-22T03:28:35.677Z,99927.29
2018-12-22T03:31:03.103Z,99920.53
2018-12-22T03:33:30.505Z,99924.98
2018-12-22T03:35:58.056Z,99922.49
2018-12-22T03:38:25.476Z,99905.76
2018-12-22T03:40:52.892Z,99908.22
2018-12-22T03:43:20.293Z,99906.41
2018-12-22T03:45:47.697Z,99890.78
2018-12-22T03:48:15.140Z,99898.86
2018-12-22T03:50:42.677Z,99886.87
2018-12-22T03:53:10.133Z,99880.27
2018-12-22T03:55:37.611Z,99884.22
2018-12-22T03:58:05.071Z,99875.02
2018-12-22T04:00:32.533Z,99861.07
2018-12-22T04:02:59.961Z,99866.97
2018-12-22T04:05:27.390Z,99856.97
2018-12-22T04:07:54.887Z,99859.59
2018-12-22T04:10:22.310Z,99862.70
2018-12-22T04:12:49.789Z,99875.84
2018-12-22T04:15:17.259Z,99863.51
2018-12-22T04:17:44.718Z,99865.49
2018-12-22T04:20:12.166Z,99861.20
2018-12-22T04:22:39.568Z,99852.67
2018-12-22T04:25:07.102Z,99847.73
2018-12-22T04:27:34.524Z,99839.19
2018-12-22T04:30:02.073Z,99836.88
2018-12-22T04:32:29.562Z,99828.67
2018-12-22T04:34:57.032Z,99826.55
2018-12-22T04:37:24.513Z,99823.73
2018-12-22T04:39:52.035Z,99815.19
2018-12-22T04:42:19.479Z,99816.17
2018-12-22T04:44:47.074Z,99804.80
2018-12-22T04:47:14.508Z,99811.56
2018-12-22T04:49:41.943Z,99810.42
2018-12-22T04:52:09.509Z,99796.13
2018-12-22T04:54:36.980Z,99796.77
2018-12-22T04:57:04.440Z,99798.08
2018-12-22T04:59:31.898Z,99810.58
2018-12-22T05:01:59.341Z,99807.95
2018-12-22T05:04:26.798Z,99805.97
2018-12-22T05:06:54.267Z,99813.72
2018-12-22T05:09:21.736Z,99829.98
2018-12-22T05:11:49.140Z,99826.19
2018-12-22T05:14:16.626Z,99832.27
2018-12-22T05:16:44.078Z,99829.82
2018-12-22T05:19:11.550Z,99833.95
2018-12-22T05:21:38.994Z,99832.78
2018-12-22T05:24:06.434Z,99827.70
2018-12-22T05:26:33.841Z,99828.84
2018-12-22T05:29:01.283Z,99830.81
2018-12-22T05:31:28.735Z,99842.14
2018-12-22T05:33:56.155Z,99838.69
2018-12-22T05:36:23.593Z,99844.95
2018-12-22T05:38:51.098Z,99848.39
2018-12-22T05:41:19.802Z,99855.47
2018-12-22T05:43:47.373Z,99869.75
2018-12-22T05:46:14.794Z,99872.70
2018-12-22T05:48:42.264Z,99874.17
2018-12-22T05:51:09.705Z,99872.54
2018-12-22T05:53:37.165Z,99882.74
2018-12-22T05:56:04.573Z,99880.27
2018-12-22T05:58:32.074Z,99894.08
2018-12-22T06:00:59.566Z,99888.16
2018-12-22T06:03:26.993Z,99896.21
2018-12-22T06:05:54.441Z,99897.84
2018-12-22T06:08:21.905Z,99906.41
2018-12-22T06:10:49.330Z,99920.69
2018-12-22T06:13:16.756Z,99917.23
2018-12-22T06:15:44.177Z,99924.48
2018-12-22T06:18:11.633Z,99916.44
2018-12-22T06:20:39.075Z,99925.45
2018-12-22T06:23:06.620Z,99934.17
2018-12-22T06:25:34.114Z,99924.95
2018-12-22T06:28:01.775Z,99929.39
2018-12-22T06:30:29.220Z,99940.91
2018-12-22T06:32:56.899Z,99949.48
2018-12-22T06:35:24.362Z,99954.08
2018-12-22T06:37:51.847Z,99946.00
2018-12-22T06:40:19.382Z,99959.50
2018-12-22T06:42:46.831Z,99966.71
2018-12-22T06:45:14.255Z,99972.64
2018-12-22T06:47:41.679Z,99980.70
2018-12-22T06:50:09.190Z,99975.94
2018-12-22T06:52:36.645Z,99984.97
2018-12-22T06:55:04.136Z,99997.34
2018-12-22T06:57:31.540Z,99997.32
2018-12-22T06:59:59.028Z,100001.27
2018-12-22T07:02:26.487Z,100005.04
2018-12-22T07:04:54.025Z,100013.10
2018-12-22T07:07:21.603Z,100016.37
2018-12-22T07:09:49.067Z,100028.89
2018-12-22T07:12:16.531Z,100036.80
2018-12-22T07:14:43.969Z,100046.34
2018-12-22T07:17:11.422Z,100038.41
2018-12-22T07:19:38.899Z,100055.38
2018-12-22T07:22:06.351Z,100067.71
2018-12-22T07:24:33.808Z,100070.48
2018-12-22T07:27:01.253Z,100070.98
2018-12-22T07:29:28.818Z,100075.08
2018-12-22T07:31:56.280Z,100079.52
2018-12-22T07:34:23.707Z,100090.05
2018-12-22T07:36:51.204Z,100091.86
2018-12-22T07:39:18.751Z,100103.05
2018-12-22T07:41:46.175Z,100099.28
2018-12-22T07:44:13.664Z,100106.50
2018-12-22T07:46:41.112Z,100106.00
2018-12-22T07:49:08.603Z,100103.23
2018-12-22T07:51:36.057Z,100106.00
2018-12-22T07:54:03.597Z,100124.42
2018-12-22T07:56:31.032Z,100126.09
2018-12-22T07:58:58.498Z,100127.05
2018-12-22T08:01:25.983Z,100138.08
2018-12-22T08:03:53.527Z,100143.34
2018-12-22T08:06:20.983Z,100142.70
2018-12-22T08:08:48.430Z,100160.62
2018-12-22T08:11:15.912Z,100157.80
2018-12-22T08:13:43.356Z,100167.87
2018-12-22T08:16:10.785Z,100181.03
2018-12-22T08:18:38.276Z,100178.40
2018-12-22T08:21:05.737Z,100190.70
2018-12-22T08:23:33.174Z,100198.28
2018-12-22T08:26:00.644Z,100207.30
2018-12-22T08:28:28.114Z,100214.70
2018-12-22T08:30:55.537Z,100220.45
2018-12-22T08:33:23.009Z,100224.88
2018-12-22T08:35:50.468Z,100233.41
2018-12-22T08:38:17.931Z,100251.49
2018-12-22T08:40:45.367Z,100260.33
2018-12-22T08:43:12.828Z,100263.94
2018-12-22T08:45:40.254Z,100271.77
2018-12-22T08:48:07.749Z,100279.82
2018-12-22T08:50:35.208Z,100280.27
2018-12-22T08:53:02.674Z,100289.14
2018-12-22T08:55:30.130Z,100301.16
2018-12-22T08:57:57.569Z,100313.65
2018-12-22T09:00:25.045Z,100316.94
2018-12-22T09:02:52.519Z,100314.00
2018-12-22T09:05:19.948Z,100349.34
2018-12-22T09:07:47.394Z,100362.98
2018-12-22T09:10:14.824Z,100376.44
2018-12-22T09:12:42.259Z,100378.55
2018-12-22T09:15:09.772Z,100379.51
2018-12-22T09:17:37.221Z,100403.80
2018-12-22T09:20:07.337Z,100403.63
2018-12-22T09:22:34.766Z,100414.31
2018-12-22T09:25:02.286Z,100419.91
2018-12-22T09:27:29.697Z,100433.87
2018-12-22T09:29:57.183Z,100432.42
2018-12-22T09:32:24.629Z,100440.83
2018-12-22T09:34:52.067Z,100439.32
2018-12-22T09:37:19.569Z,100446.75
2018-12-22T09:39:47.011Z,100454.70
2018-12-22T09:42:14.447Z,100466.04
2018-12-22T09:44:41.928Z,100459.82
2018-12-22T09:47:09.348Z,100475.44
2018-12-22T09:49:36.825Z,100476.39
2018-12-22T09:52:04.294Z,100473.11
2018-12-22T09:54:31.738Z,100474.91
2018-12-22T09:56:59.212Z,100486.42
2018-12-22T09:59:26.677Z,100479.84
2018-12-22T10:01:54.087Z,100484.17
2018-12-22T10:04:21.569Z,100491.11
2018-12-22T10:06:48.995Z,100498.24
2018-12-22T10:09:16.504Z,100487.33
2018-12-22T10:11:43.950Z,100492.78
2018-12-22T10:14:11.397Z,100500.52
2018-12-22T10:16:38.827Z,100506.79
2018-12-22T10:19:06.322Z,100503.66
2018-12-22T10:21:33.783Z,100513.36
2018-12-22T10:24:01.243Z,100517.61
2018-12-22T10:26:28.995Z,100515.50
2018-12-22T10:28:56.445Z,100524.08
2018-12-22T10:31:23.895Z,100521.06
2018-12-22T10:33:51.365Z,100524.87
2018-12-22T10:36:18.793Z,100524.22
2018-12-22T10:38:46.274Z,100522.57
2018-12-22T10:41:13.744Z,100527.83
2018-12-22T10:43:41.180Z,100536.02
2018-12-22T10:46:08.641Z,100533.26
2018-12-22T10:48:36.075Z,100550.98
2018-12-22T10:51:03.569Z,100551.73
2018-12-22T10:53:31.029Z,100553.58
2018-12-22T10:55:58.486Z,100544.76
2018-12-22T10:58:25.946Z,100554.00
2018-12-22T11:00:53.387Z,100551.99
2018-12-22T11:03:20.865Z,100553.02
2018-12-22T11:05:48.273Z,100555.64
2018-12-22T11:08:15.783Z,100554.88
2018-12-22T11:10:43.232Z,100553.42
2018-12-22T11:13:10.663Z,100560.14
2018-12-22T11:15:38.104Z,100555.84
2018-12-22T11:18:05.521Z,100564.25
2018-12-22T11:20:32.966Z,100557.67
2018-12-22T11:23:00.410Z,100555.05
2018-12-22T11:25:27.958Z,100562.83
2018-12-22T11:27:55.435Z,100563.08
2018-12-22T11:30:24.435Z,100564.56
2018-12-22T11:32:51.884Z,100566.75
2018-12-22T11:35:19.426Z,100558.77
2018-12-22T11:37:47.007Z,100558.11
2018-12-22T11:40:14.431Z,100566.95
2018-12-22T11:42:47.581Z,100556.03
2018-12-22T11:45:11.401Z,100556.31
2018-12-22T11:47:41.737Z,100555.02
2018-12-22T11:50:17.593Z,100567.16
2018-12-22T11:52:45.042Z,100559.52
2018-12-22T11:55:12.463Z,100558.72
2018-12-22T11:57:40.054Z,100565.63
2018-12-22T12:00:09.257Z,100563.69
2018-12-22T12:02:36.732Z,100560.34
2018-12-22T12:05:07.371Z,100569.06
2018-12-22T12:07:35.774Z,100573.19
2018-12-22T12:10:03.712Z,100582.69
2018-12-22T12:12:31.140Z,100576.10
2018-12-22T12:14:58.592Z,100579.17
2018-12-22T12:17:38.537Z,100583.73
2018-12-22T12:20:06.693Z,100588.86
2018-12-22T12:22:34.285Z,100585.70
2018-12-22T12:25:01.754Z,100588.66
2018-12-22T12:27:29.232Z,100595.91
2018-12-22T12:29:56.779Z,100602.86
2018-12-22T12:32:24.196Z,100607.58
2018-12-22T12:34:51.641Z,100612.02
2018-12-22T12:37:19.080Z,100609.48
2018-12-22T12:39:46.486Z,100611.09
2018-12-22T12:42:13.913Z,100606.88
2018-12-22T12:44:42.352Z,100616.13
2018-12-22T12:47:10.018Z,100621.35
2018-12-22T12:49:37.433Z,100620.75
2018-12-22T12:52:05.024Z,100623.87
2018-12-22T12:54:32.483Z,100621.22
2018-12-22T12:56:59.913Z,100614.58
2018-12-22T12:59:27.379Z,100625.30
2018-12-22T13:02:00.967Z,100625.47
2018-12-22T13:04:24.308Z,100628.81
2018-12-22T13:06:51.789Z,100634.02
2018-12-22T13:09:19.232Z,100638.66
2018-12-22T13:11:46.926Z,100645.30
2018-12-22T13:14:14.496Z,100643.41
2018-12-22T13:16:41.936Z,100645.83
2018-12-22T13:19:09.375Z,100656.17
2018-12-22T13:21:36.986Z,100662.56
2018-12-22T13:24:04.510Z,100666.52
2018-12-22T13:26:36.766Z,100673.39
2018-12-22T13:29:01.487Z,100671.29
2018-12-22T13:31:29.981Z,100674.83
2018-12-22T13:33:57.551Z,100673.65
2018-12-22T13:36:24.979Z,100677.08
2018-12-22T13:38:52.626Z,100679.27
2018-12-22T13:41:20.296Z,100683.42
2018-12-22T13:43:47.777Z,100679.11
2018-12-22T13:46:15.193Z,100682.70
2018-12-22T13:48:42.864Z,100698.02
2018-12-22T13:51:10.760Z,100690.11
2018-12-22T13:53:38.428Z,100703.25
2018-12-22T13:56:05.981Z,100722.31
2018-12-22T13:58:33.519Z,100732.59
2018-12-22T14:01:01.088Z,100718.30
2018-12-22T14:03:28.628Z,100739.39
2018-12-22T14:05:56.097Z,100730.34
2018-12-22T14:08:23.701Z,100741.39
2018-12-22T14:10:51.098Z,100731.59
2018-12-22T14:13:18.531Z,100744.80
2018-12-22T14:15:47.368Z,100745.56
2018-12-22T14:18:19.419Z,100740.25
2018-12-22T14:20:46.880Z,100741.28
2018-12-22T14:23:14.337Z,100732.27
2018-12-22T14:25:41.767Z,100734.90
2018-12-22T14:28:09.193Z,100736.21
2018-12-22T14:30:36.737Z,100746.17
2018-12-22T14:33:04.374Z,100746.33
2018-12-22T14:35:34.707Z,100749.23
2018-12-22T14:38:02.123Z,100749.83
2018-12-22T14:40:29.601Z,100753.83
2018-12-22T14:42:57.026Z,100762.91
2018-12-22T14:45:24.543Z,100766.41
2018-12-22T14:47:52.075Z,100768.92
2018-12-22T14:50:19.537Z,100772.50
2018-12-22T14:52:47.054Z,100769.74
2018-12-22T14:55:14.551Z,100776.80
2018-12-22T14:57:53.396Z,100776.31
2018-12-22T15:00:20.811Z,100781.91
2018-12-22T15:02:48.292Z,100788.14
2018-12-22T15:05:15.770Z,100790.71
2018-12-22T15:07:43.197Z,100795.59
2018-12-22T15:10:10.975Z,100803.77
2018-12-22T15:12:38.442Z,100803.48
2018-12-22T15:15:11.104Z,100810.61
2018-12-22T15:17:41.468Z,100812.20
2018-12-22T15:20:14.784Z,100811.25
2018-12-22T15:22:42.370Z,100814.64
2018-12-22T15:25:09.939Z,100820.23
2018-12-22T15:27:37.416Z,100825.43
2018-12-22T15:30:08.858Z,100826.86
2018-12-22T15:32:43.889Z,100833.71
2018-12-22T15:35:07.741Z,100840.09
2018-12-22T15:37:35.325Z,100840.55
2018-12-22T15:40:04.410Z,100842.23
2018-12-22T15:42:31.867Z,100841.11
2018-12-22T15:44:59.431Z,100840.55
2018-12-22T15:47:26.896Z,100845.88
2018-12-22T15:49:54.552Z,100849.48
2018-12-22T15:52:22.003Z,100853.70
2018-12-22T15:54:49.456Z,100861.25
2018-12-22T15:57:17.028Z,100870.11
2018-12-22T15:59:44.480Z,100876.47
2018-12-22T16:02:11.906Z,100876.41
2018-12-22T16:04:39.414Z,100879.16
2018-12-22T16:07:06.848Z,100891.13
2018-12-22T16:09:34.253Z,100890.37
2018-12-22T16:12:01.760Z,100891.97
2018-12-22T16:14:29.178Z,100885.52
2018-12-22T16:16:56.666Z,100892.03
2018-12-22T16:19:24.121Z,100895.69
2018-12-22T16:21:51.540Z,100897.16
2018-12-22T16:24:19.042Z,100905.87
2018-12-22T16:26:46.722Z,100902.48
2018-12-22T16:29:14.331Z,100908.22
2018-12-22T16:31:41.820Z,100915.41
2018-12-22T16:34:09.277Z,100915.41
2018-12-22T16:36:36.709Z,100916.16
2018-12-22T16:39:06.242Z,100920.81
2018-12-22T16:41:33.698Z,100925.52
2018-12-22T16:44:01.258Z,100925.30
2018-12-22T16:46:28.733Z,100930.55
2018-12-22T16:48:56.191Z,100916.91
2018-12-22T16:51:23.606Z,100936.83
2018-12-22T16:53:51.099Z,100930.65
2018-12-22T16:56:18.576Z,100941.53
2018-12-22T16:58:46.402Z,100958.83
2018-12-22T17:01:18.469Z,100951.63
2018-12-22T17:03:46.145Z,100957.92
2018-12-22T17:06:14.319Z,100957.17
2018-12-22T17:08:41.827Z,100963.73
2018-12-22T17:11:09.326Z,100957.66
2018-12-22T17:13:36.802Z,100970.91
2018-12-22T17:16:04.445Z,100965.54
2018-12-22T17:18:31.880Z,100984.28
2018-12-22T17:21:03.227Z,100971.55
2018-12-22T17:23:38.093Z,100978.91
2018-12-22T17:26:06.359Z,100973.38
2018-12-22T17:28:33.834Z,100983.47
2018-12-22T17:31:01.249Z,100983.96
2018-12-22T17:33:28.672Z,100981.72
2018-12-22T17:35:56.304Z,100985.96
2018-12-22T17:38:24.164Z,100998.47
2018-12-22T17:40:51.721Z,100993.70
2018-12-22T17:43:19.160Z,100999.56
2018-12-22T17:45:46.626Z,101012.70
2018-12-22T17:48:14.180Z,101015.25
2018-12-22T17:50:41.640Z,101016.91
2018-12-22T17:53:09.061Z,101033.53
2018-12-22T17:55:36.542Z,101046.11
2018-12-22T17:58:04.027Z,101045.73
2018-12-22T18:00:31.496Z,101050.36
2018-12-22T18:02:58.931Z,101047.39
2018-12-22T18:05:26.433Z,101042.13
2018-12-22T18:07:53.975Z,101045.81
2018-12-22T18:10:21.377Z,101049.97
2018-12-22T18:12:48.867Z,101056.55
2018-12-22T18:15:22.896Z,101065.26
2018-12-22T18:17:50.426Z,101065.48
2018-12-22T18:20:17.907Z,101065.48
2018-12-22T18:22:45.455Z,101066.42
2018-12-22T18:25:17.417Z,101062.36
2018-12-22T18:27:45.544Z,101060.56
2018-12-22T18:30:13.353Z,101075.73
2018-12-22T18:32:42.039Z,101081.11
2018-12-22T18:35:11.443Z,101082.91
2018-12-22T18:37:39.377Z,101089.89
2018-12-22T18:40:23.055Z,101083.36
2018-12-22T18:42:50.519Z,101083.28
2018-12-22T18:45:17.938Z,101086.52
2018-12-22T18:47:45.424Z,101090.95
2018-12-22T18:50:22.181Z,101090.23
2018-12-22T18:52:49.619Z,101090.98
2018-12-22T18:55:17.042Z,101090.64
2018-12-22T18:57:47.084Z,101092.30
2018-12-22T19:00:22.676Z,101087.63
2018-12-22T19:02:50.732Z,101087.80
2018-12-22T19:05:18.937Z,101081.41
2018-12-22T19:07:46.460Z,101083.47
2018-12-22T19:10:22.848Z,101093.98
2018-12-22T19:12:50.392Z,101102.89
2018-12-22T19:15:17.901Z,101098.17
2018-12-22T19:17:45.422Z,101090.25
2018-12-22T19:20:20.537Z,101090.34
2018-12-22T19:22:48.002Z,101086.99
2018-12-22T19:25:15.443Z,101087.22
2018-12-22T19:27:42.863Z,101101.75
2018-12-22T19:30:10.278Z,101116.32
2018-12-22T19:32:37.747Z,101117.23
2018-12-22T19:35:06.133Z,101119.78
2018-12-22T19:37:33.559Z,101122.59
2018-12-22T19:40:01.039Z,101123.10
2018-12-22T19:42:28.511Z,101117.62
2018-12-22T19:44:55.930Z,101110.97
2018-12-22T19:47:23.407Z,101120.02
2018-12-22T19:49:50.865Z,101128.16
2018-12-22T19:52:18.284Z,101129.95
2018-12-22T19:54:45.762Z,101124.05
2018-12-22T19:57:13.222Z,101118.22
2018-12-22T19:59:40.684Z,101127.19
2018-12-22T20:02:08.135Z,101126.13
2018-12-22T20:04:35.576Z,101128.89
2018-12-22T20:07:03.111Z,101128.41
2018-12-22T20:09:30.636Z,101127.44
2018-12-22T20:11:58.059Z,101124.13
2018-12-22T20:14:25.533Z,101131.35
2018-12-22T20:16:52.977Z,101131.07
2018-12-22T20:19:20.452Z,101128.53
2018-12-22T20:21:47.911Z,101133.87
2018-12-22T20:24:15.353Z,101137.89
2018-12-22T20:26:42.790Z,101143.64
2018-12-22T20:29:10.265Z,101152.12
2018-12-22T20:31:37.744Z,101148.55
2018-12-22T20:34:11.004Z,101155.06
2018-12-22T20:36:34.629Z,101155.20
2018-12-22T20:39:02.143Z,101149.80
2018-12-22T20:41:29.598Z,101157.00
2018-12-22T20:43:57.017Z,101160.72
2018-12-22T20:46:24.446Z,101158.92
2018-12-22T20:48:51.974Z,101161.00
2018-12-22T20:51:19.397Z,101159.51
2018-12-22T20:53:46.809Z,101164.67
2018-12-22T20:56:14.261Z,101157.73
2018-12-22T20:58:41.720Z,101156.05
2018-12-22T21:01:09.155Z,101163.30
2018-12-22T21:03:39.730Z,101162.37
2018-12-22T21:06:13.125Z,101163.91
2018-12-22T21:08:40.547Z,101164.28
2018-12-22T21:11:07.984Z,101168.36
2018-12-22T21:13:35.408Z,101163.59
2018-12-22T21:16:02.822Z,101167.53
2018-12-22T21:18:30.279Z,101180.38
2018-12-22T21:20:57.720Z,101184.45
2018-12-22T21:23:25.195Z,101181.19
2018-12-22T21:25:52.619Z,101182.02
2018-12-22T21:28:20.108Z,101185.95
2018-12-22T21:30:47.543Z,101184.95
2018-12-22T21:33:15.013Z,101200.73
2018-12-22T21:35:52.799Z,101194.99
2018-12-22T21:38:11.890Z,101190.11
2018-12-22T21:40:39.339Z,101203.36
2018-12-22T21:43:06.795Z,101210.55
2018-12-22T21:45:34.236Z,101206.22
2018-12-22T21:48:01.651Z,101207.39
2018-12-22T21:50:29.159Z,101213.84
2018-12-22T21:52:56.619Z,101217.30
2018-12-22T21:55:24.072Z,101230.20
2018-12-22T21:57:51.508Z,101235.94
2018-12-22T22:00:19.150Z,101234.05
2018-12-22T22:02:46.647Z,101238.47
2018-12-22T22:05:14.068Z,101240.76
2018-12-22T22:07:41.566Z,101243.24
2018-12-22T22:10:09.105Z,101246.34
2018-12-22T22:12:36.580Z,101246.06
2018-12-22T22:15:05.049Z,101245.27
2018-12-22T22:17:32.519Z,101250.41
2018-12-22T22:19:59.954Z,101253.03
2018-12-22T22:22:27.377Z,101252.09
2018-12-22T22:24:54.950Z,101255.06
2018-12-22T22:27:22.359Z,101264.24
2018-12-22T22:29:49.917Z,101263.37
2018-12-22T22:32:17.349Z,101261.57
2018-12-22T22:34:45.728Z,101266.88
2018-12-22T22:37:13.548Z,101265.71
2018-12-22T22:39:40.981Z,101259.97
2018-12-22T22:42:08.389Z,101269.65
2018-12-22T22:44:35.862Z,101269.41
2018-12-22T22:47:03.293Z,101274.32
2018-12-22T22:49:30.786Z,101274.56
2018-12-22T22:51:58.242Z,101274.19
2018-12-22T22:54:25.694Z,101272.19
2018-12-22T22:56:53.150Z,101287.95
2018-12-22T22:59:20.557Z,101284.11
2018-12-22T23:01:48.057Z,101281.25
2018-12-22T23:04:15.523Z,101279.11
2018-12-22T23:06:42.989Z,101275.17
2018-12-22T23:09:10.448Z,101276.86
2018-12-22T23:11:37.849Z,101284.36
2018-12-22T23:14:05.288Z,101279.59
2018-12-22T23:16:32.777Z,101284.61
2018-12-22T23:19:00.199Z,101284.25
2018-12-22T23:21:27.631Z,101287.70
2018-12-22T23:23:55.124Z,101285.80
2018-12-22T23:26:22.647Z,101291.84
2018-12-22T23:28:50.086Z,101287.66
2018-12-22T23:31:17.531Z,101283.61
2018-12-22T23:33:44.938Z,101291.98
2018-12-22T23:36:12.480Z,101291.12
2018-12-22T23:38:39.927Z,101295.34
2018-12-22T23:41:07.492Z,101291.98
2018-12-22T23:43:34.951Z,101286.98
2018-12-22T23:46:02.427Z,101294.27
2018-12-22T23:48:29.872Z,101293.64
2018-12-22T23:50:58.152Z,101293.05
2018-12-22T23:53:25.789Z,101294.37
2018-12-22T23:55:53.228Z,101296.27
2018-12-22T23:58:20.698Z,101290.53
